Time;durP1;ratioP1;P1;durP2;ratioP2;P2;SDS_P1;SDS_P2;PMS_P1;PMS_P2;Temp;Humidity;BMP_temperature;BMP_pressure;BME280_temperature;BME280_humidity;BME280_pressure;Samples;Min_cycle;Max_cycle;Signal;HPM_P1;HPM_P2
2024/04/16 00:01:41;;;;;;;2.13;0.60;;;;;;;;;;5334421;26;20288;-83
2024/04/16 00:04:45;;;;;;;1.00;0.40;;;;;;;;;;5294978;27;20229;-83
2024/04/16 00:07:51;;;;;;;2.53;0.77;;;;;;;;;;5314583;27;20237;-82
2024/04/16 00:11:00;;;;;;;1.00;0.60;;;;;;;;;;5294622;27;20226;-84
2024/04/16 00:14:04;;;;;;;1.13;0.53;;;;;;;;;;5294430;27;20221;-83
2024/04/16 00:17:23;;;;;;;0.70;0.53;;;;;;;;;;5295475;27;20280;-82
2024/04/16 00:20:27;;;;;;;1.20;0.70;;;;;;;;;;5297519;27;20219;-82
2024/04/16 00:23:32;;;;;;;1.20;0.63;;;;;;;;;;5316696;27;20238;-83
2024/04/16 00:26:36;;;;;;;0.83;0.40;;;;;;;;;;5317330;27;20714;-82
2024/04/16 00:29:43;;;;;;;3.33;0.60;;;;;;;;;;5297073;27;20777;-84
2024/04/16 00:32:48;;;;;;;1.70;0.70;;;;;;;;;;5318108;27;20575;-83
2024/04/16 00:35:55;;;;;;;3.03;0.63;;;;;;;;;;5317696;27;20229;-83
2024/04/16 00:39:00;;;;;;;0.93;0.50;;;;;;;;;;5316379;27;20285;-83
2024/04/16 00:42:04;;;;;;;1.77;0.50;;;;;;;;;;5317287;27;20265;-83
2024/04/16 00:45:09;;;;;;;1.37;0.70;;;;;;;;;;5296699;27;20233;-82
2024/04/16 00:48:15;;;;;;;3.83;0.77;;;;;;;;;;5335421;26;20305;-81
2024/04/16 00:51:20;;;;;;;1.47;0.73;;;;;;;;;;5315656;27;20230;-81
2024/04/16 00:54:25;;;;;;;2.60;0.80;;;;;;;;;;5295984;27;20718;-82
2024/04/16 00:57:30;;;;;;;4.00;0.60;;;;;;;;;;5315569;27;20606;-81
2024/04/16 01:00:35;;;;;;;1.93;0.87;;;;;;;;;;5295794;27;20222;-80
2024/04/16 01:03:43;;;;;;;4.07;1.00;;;;;;;;;;5315145;27;20221;-80
2024/04/16 01:06:48;;;;;;;4.63;0.90;;;;;;;;;;5315284;27;20566;-81
2024/04/16 01:09:53;;;;;;;1.70;0.80;;;;;;;;;;5314926;27;20790;-81
2024/04/16 01:12:57;;;;;;;3.40;0.80;;;;;;;;;;5335136;26;20225;-81
2024/04/16 01:16:02;;;;;;;3.67;1.00;;;;;;;;;;5315235;27;20276;-81
2024/04/16 01:19:07;;;;;;;3.30;0.97;;;;;;;;;;5314839;26;20285;-80
2024/04/16 01:22:11;;;;;;;1.87;0.90;;;;;;;;;;5314808;27;20217;-81
2024/04/16 01:25:16;;;;;;;2.27;0.73;;;;;;;;;;5314804;27;20265;-80
2024/04/16 01:28:21;;;;;;;4.40;0.80;;;;;;;;;;5293683;27;20623;-81
2024/04/16 01:31:25;;;;;;;1.97;0.80;;;;;;;;;;5314393;27;20269;-81
2024/04/16 01:34:30;;;;;;;4.43;1.00;;;;;;;;;;5334316;26;20225;-80
2024/04/16 01:37:34;;;;;;;4.57;1.10;;;;;;;;;;5314174;27;20296;-80
2024/04/16 01:40:38;;;;;;;1.57;0.80;;;;;;;;;;5274957;27;20230;-81
2024/04/16 01:43:43;;;;;;;4.97;1.10;;;;;;;;;;5294593;27;20221;-80
2024/04/16 01:46:48;;;;;;;4.40;1.17;;;;;;;;;;5314868;27;20777;-80
2024/04/16 01:49:52;;;;;;;1.77;0.90;;;;;;;;;;5314859;27;20265;-79
2024/04/16 01:52:56;;;;;;;3.53;1.00;;;;;;;;;;5294293;27;20226;-80
2024/04/16 01:56:01;;;;;;;3.17;1.07;;;;;;;;;;5315433;27;20229;-80
2024/04/16 01:59:06;;;;;;;1.63;0.90;;;;;;;;;;5314128;27;20273;-80
2024/04/16 02:02:12;;;;;;;4.47;1.20;;;;;;;;;;5294524;27;20713;-81
2024/04/16 02:05:16;;;;;;;3.87;1.17;;;;;;;;;;5314114;27;20221;-80
2024/04/16 02:08:21;;;;;;;2.33;1.10;;;;;;;;;;5314217;27;20292;-81
2024/04/16 02:11:25;;;;;;;5.97;1.00;;;;;;;;;;5313851;27;20222;-80
2024/04/16 02:14:30;;;;;;;5.17;1.30;;;;;;;;;;5315185;27;20225;-81
2024/04/16 02:17:34;;;;;;;3.80;1.10;;;;;;;;;;5314013;27;20264;-80
2024/04/16 02:20:39;;;;;;;2.67;1.13;;;;;;;;;;5333858;26;20245;-81
2024/04/16 02:23:45;;;;;;;5.23;1.10;;;;;;;;;;5314322;27;20217;-82
2024/04/16 02:26:50;;;;;;;4.67;1.43;;;;;;;;;;5313697;27;20614;-81
2024/04/16 02:29:54;;;;;;;3.70;1.20;;;;;;;;;;5275068;27;20784;-81
2024/04/16 02:32:59;;;;;;;2.93;1.00;;;;;;;;;;5313919;27;20722;-81
2024/04/16 02:36:04;;;;;;;5.80;1.40;;;;;;;;;;5313848;27;20222;-81
2024/04/16 02:39:09;;;;;;;3.30;1.20;;;;;;;;;;5294054;27;20280;-80
2024/04/16 02:42:13;;;;;;;2.63;0.93;;;;;;;;;;5314273;27;20217;-80
2024/04/16 02:45:20;;;;;;;5.83;1.00;;;;;;;;;;5274519;27;20221;-80
2024/04/16 02:48:24;;;;;;;5.70;1.27;;;;;;;;;;5313296;27;20277;-80
2024/04/16 02:51:28;;;;;;;3.47;1.20;;;;;;;;;;5313307;27;20233;-81
2024/04/16 02:54:33;;;;;;;2.77;1.20;;;;;;;;;;5293960;27;20295;-82
2024/04/16 02:57:38;;;;;;;4.03;1.10;;;;;;;;;;5313641;27;20234;-80
2024/04/16 03:00:42;;;;;;;1.73;0.90;;;;;;;;;;5293424;27;20269;-80
2024/04/16 03:03:47;;;;;;;2.57;1.20;;;;;;;;;;5274229;27;20734;-81
2024/04/16 03:06:51;;;;;;;2.97;1.03;;;;;;;;;;5313306;27;20230;-81
2024/04/16 03:09:56;;;;;;;5.87;1.00;;;;;;;;;;5293892;27;20264;-81
2024/04/16 03:13:00;;;;;;;5.00;1.43;;;;;;;;;;5293853;27;20590;-81
2024/04/16 03:16:08;;;;;;;2.80;0.90;;;;;;;;;;5313388;27;20346;-80
2024/04/16 03:19:12;;;;;;;5.03;1.00;;;;;;;;;;5314325;27;20280;-81
2024/04/16 03:22:16;;;;;;;4.13;0.93;;;;;;;;;;5332816;26;20303;-80
2024/04/16 03:25:23;;;;;;;2.40;0.97;;;;;;;;;;5312956;27;20621;-80
2024/04/16 03:28:28;;;;;;;3.20;1.23;;;;;;;;;;5293399;27;20281;-81
2024/04/16 03:31:32;;;;;;;2.60;1.03;;;;;;;;;;5312867;27;20272;-80
2024/04/16 03:34:37;;;;;;;2.63;0.90;;;;;;;;;;5293478;27;20233;-80
2024/04/16 03:37:41;;;;;;;8.33;1.13;;;;;;;;;;5313048;27;20276;-80
2024/04/16 03:40:55;;;;;;;1.70;1.20;;;;;;;;;;5313898;27;20225;-81
2024/04/16 03:43:59;;;;;;;2.87;1.20;;;;;;;;;;5293274;27;20229;-82
2024/04/16 03:47:04;;;;;;;8.33;1.20;;;;;;;;;;5293068;27;20615;-81
2024/04/16 03:50:08;;;;;;;4.37;1.53;;;;;;;;;;5293004;27;20233;-81
2024/04/16 03:53:13;;;;;;;2.83;1.00;;;;;;;;;;5315276;27;20272;-81
2024/04/16 03:56:18;;;;;;;4.57;1.37;;;;;;;;;;5296426;27;20217;-80
2024/04/16 04:00:59;;;;;;;3.37;0.97;;;;;;;;;;5296427;27;20629;-82
2024/04/16 04:03:02;;;;;;;5.87;1.43;;;;;;;;;;5296030;27;20288;-81
2024/04/16 04:06:06;;;;;;;4.37;1.20;;;;;;;;;;5315602;27;20299;-82
2024/04/16 04:09:11;;;;;;;7.70;1.37;;;;;;;;;;5315860;27;20281;-81
2024/04/16 04:12:16;;;;;;;5.17;1.17;;;;;;;;;;5316015;27;20217;-81
2024/04/16 04:15:20;;;;;;;3.37;1.07;;;;;;;;;;5315586;27;20571;-81
2024/04/16 04:22:05;;;;;;;1.37;1.00;;;;;;;;;;5240029;27;20219;-86
2024/04/16 04:26:29;;;;;;;4.13;1.30;;;;;;;;;;5254285;27;20295;-86
2024/04/16 04:30:08;;;;;;;3.20;1.03;;;;;;;;;;5234708;27;20287;-86
2024/04/16 04:33:18;;;;;;;3.57;1.27;;;;;;;;;;5252617;27;20283;-86
2024/04/16 04:38:10;;;;;;;4.37;1.20;;;;;;;;;;5253686;27;20278;-86
2024/04/16 04:41:34;;;;;;;2.33;1.30;;;;;;;;;;5252393;27;20362;-86
2024/04/16 04:44:52;;;;;;;3.57;1.30;;;;;;;;;;5252509;27;20235;-86
2024/04/16 04:47:59;;;;;;;3.07;1.10;;;;;;;;;;5213861;27;20228;-85
2024/04/16 04:51:03;;;;;;;3.17;1.00;;;;;;;;;;5252375;27;20231;-86
2024/04/16 04:54:08;;;;;;;2.70;1.13;;;;;;;;;;5232010;27;20223;-86
2024/04/16 04:57:13;;;;;;;7.13;1.30;;;;;;;;;;5269419;27;20291;-86
2024/04/16 05:00:23;;;;;;;2.50;1.20;;;;;;;;;;5251392;27;20231;-85
2024/04/16 05:03:31;;;;;;;3.07;1.13;;;;;;;;;;5252562;27;20215;-86
2024/04/16 05:06:47;;;;;;;3.93;1.10;;;;;;;;;;5232726;27;20805;-86
2024/04/16 05:09:53;;;;;;;5.73;1.70;;;;;;;;;;5251898;27;20283;-86
2024/04/16 05:12:57;;;;;;;3.67;1.40;;;;;;;;;;5271774;27;20232;-86
2024/04/16 05:16:05;;;;;;;2.67;1.20;;;;;;;;;;5253385;27;20269;-86
2024/04/16 05:19:10;;;;;;;4.07;1.40;;;;;;;;;;5257203;27;20269;-86
2024/04/16 05:22:14;;;;;;;5.53;1.40;;;;;;;;;;5261952;27;20210;-86
2024/04/16 05:25:19;;;;;;;3.13;1.10;;;;;;;;;;5241527;27;20261;-86
2024/04/16 05:28:27;;;;;;;2.53;1.20;;;;;;;;;;5277944;27;20642;-88
2024/04/16 05:31:35;;;;;;;5.30;1.10;;;;;;;;;;5217962;27;20214;-86
2024/04/16 05:34:44;;;;;;;3.17;1.20;;;;;;;;;;5233987;27;20796;-86
2024/04/16 05:37:49;;;;;;;4.10;1.50;;;;;;;;;;5256562;27;20264;-85
2024/04/16 05:40:54;;;;;;;3.10;1.70;;;;;;;;;;5241833;27;20265;-85
2024/04/16 05:43:59;;;;;;;3.43;1.70;;;;;;;;;;5257965;27;20265;-85
2024/04/16 05:47:05;;;;;;;3.00;1.40;;;;;;;;;;5257356;27;20265;-86
2024/04/16 05:50:09;;;;;;;5.53;1.23;;;;;;;;;;5240211;27;20806;-84
2024/04/16 05:53:15;;;;;;;2.93;1.07;;;;;;;;;;5259027;27;20258;-84
2024/04/16 05:56:19;;;;;;;1.33;0.90;;;;;;;;;;5258125;27;20265;-85
2024/04/16 05:59:24;;;;;;;3.30;0.90;;;;;;;;;;5256980;27;20282;-84
2024/04/16 06:02:30;;;;;;;2.93;1.10;;;;;;;;;;5257968;27;20206;-85
2024/04/16 06:05:34;;;;;;;1.70;1.03;;;;;;;;;;5241572;27;20257;-85
2024/04/16 06:08:42;;;;;;;4.47;1.10;;;;;;;;;;5240960;27;20265;-85
2024/04/16 06:11:47;;;;;;;4.07;1.30;;;;;;;;;;5260648;27;20209;-85
2024/04/16 06:14:58;;;;;;;2.40;1.20;;;;;;;;;;5260717;27;20210;-85
2024/04/16 06:18:10;;;;;;;3.57;1.03;;;;;;;;;;5260573;27;20213;-85
2024/04/16 06:21:15;;;;;;;2.33;0.87;;;;;;;;;;5280584;27;20206;-85
2024/04/16 06:24:19;;;;;;;2.67;1.20;;;;;;;;;;5235792;27;20283;-85
2024/04/16 06:27:24;;;;;;;1.57;1.00;;;;;;;;;;5254416;27;20232;-85
2024/04/16 06:30:28;;;;;;;4.00;1.27;;;;;;;;;;5272906;27;20279;-84
2024/04/16 06:33:36;;;;;;;1.40;1.10;;;;;;;;;;5256192;27;20564;-85
2024/04/16 06:36:40;;;;;;;1.43;0.83;;;;;;;;;;5255842;27;20210;-84
2024/04/16 06:39:46;;;;;;;1.37;0.63;;;;;;;;;;5255063;27;20269;-85
2024/04/16 06:42:54;;;;;;;2.70;1.00;;;;;;;;;;5254821;27;20206;-85
2024/04/16 06:45:58;;;;;;;2.73;1.20;;;;;;;;;;5233804;27;20267;-85
2024/04/16 06:49:06;;;;;;;1.63;0.77;;;;;;;;;;5254983;27;20275;-85
2024/04/16 06:52:15;;;;;;;1.00;0.77;;;;;;;;;;5238144;27;20206;-85
2024/04/16 06:55:19;;;;;;;1.17;0.80;;;;;;;;;;5229596;27;20278;-86
2024/04/16 06:58:23;;;;;;;2.37;1.00;;;;;;;;;;5248133;27;20287;-85
2024/04/16 07:01:28;;;;;;;3.13;1.07;;;;;;;;;;5229649;27;20283;-85
2024/04/16 07:04:33;;;;;;;1.20;0.80;;;;;;;;;;5247611;27;20219;-85
2024/04/16 07:07:37;;;;;;;1.43;1.07;;;;;;;;;;5228768;27;20227;-85
2024/04/16 07:10:41;;;;;;;1.90;0.90;;;;;;;;;;5247255;27;20282;-85
2024/04/16 07:13:47;;;;;;;1.33;0.90;;;;;;;;;;5231801;27;20216;-85
2024/04/16 07:17:00;;;;;;;2.07;1.10;;;;;;;;;;5232198;27;20271;-85
2024/04/16 07:20:05;;;;;;;2.50;1.00;;;;;;;;;;5230899;27;20279;-85
2024/04/16 07:23:09;;;;;;;2.40;0.90;;;;;;;;;;5249630;27;20224;-85
2024/04/16 07:26:14;;;;;;;2.77;1.00;;;;;;;;;;5229564;27;20216;-85
2024/04/16 07:29:19;;;;;;;2.70;0.90;;;;;;;;;;5251355;27;20286;-85
2024/04/16 07:32:24;;;;;;;2.20;1.00;;;;;;;;;;5231279;27;20253;-85
2024/04/16 07:35:29;;;;;;;7.00;1.07;;;;;;;;;;5249132;27;20566;-84
2024/04/16 07:38:33;;;;;;;2.13;0.97;;;;;;;;;;5248093;27;20287;-84
2024/04/16 07:41:37;;;;;;;4.10;1.00;;;;;;;;;;5268200;27;20220;-85
2024/04/16 07:44:42;;;;;;;2.47;0.83;;;;;;;;;;5249441;27;20278;-84
2024/04/16 07:47:47;;;;;;;1.83;0.70;;;;;;;;;;5229427;27;20274;-84
2024/04/16 07:50:51;;;;;;;1.73;0.90;;;;;;;;;;5249499;27;20220;-85
2024/04/16 07:53:55;;;;;;;3.37;1.47;;;;;;;;;;5230111;27;20287;-84
2024/04/16 07:57:00;;;;;;;2.10;0.90;;;;;;;;;;5229756;27;20224;-84
2024/04/16 08:00:25;;;;;;;2.13;1.87;;;;;;;;;;5248647;27;20283;-85
2024/04/16 08:03:44;;;;;;;1.83;0.93;;;;;;;;;;5242366;27;20302;-85
2024/04/16 08:07:03;;;;;;;2.27;1.40;;;;;;;;;;5226428;27;20220;-85
2024/04/16 08:10:32;;;;;;;1.93;1.00;;;;;;;;;;5257419;27;20298;-85
2024/04/16 08:14:36;;;;;;;2.43;1.00;;;;;;;;;;5245349;27;20294;-85
2024/04/16 08:18:52;;;;;;;5.50;1.20;;;;;;;;;;5227690;27;20282;-85
2024/04/16 08:22:17;;;;;;;9.13;3.47;;;;;;;;;;5244758;27;20228;-85
2024/04/16 08:25:22;;;;;;;4.57;2.20;;;;;;;;;;5247579;27;20224;-84
2024/04/16 08:28:27;;;;;;;25.07;12.13;;;;;;;;;;5247581;27;20283;-85
2024/04/16 08:31:34;;;;;;;7.17;3.53;;;;;;;;;;5247721;27;20263;-85
2024/04/16 08:34:47;;;;;;;4.63;1.70;;;;;;;;;;5245811;27;20259;-85
2024/04/16 08:37:53;;;;;;;4.30;1.40;;;;;;;;;;5265539;27;20570;-84
2024/04/16 08:41:06;;;;;;;9.27;1.20;;;;;;;;;;5211493;27;20271;-85
2024/04/16 08:44:28;;;;;;;4.27;2.20;;;;;;;;;;5267405;27;20227;-85
2024/04/16 08:47:33;;;;;;;2.23;1.00;;;;;;;;;;5232180;27;20275;-87
2024/04/16 08:50:43;;;;;;;1.87;0.90;;;;;;;;;;5250427;27;20772;-85
2024/04/16 08:53:50;;;;;;;3.33;1.00;;;;;;;;;;5249019;27;20216;-85
2024/04/16 08:56:55;;;;;;;5.17;1.13;;;;;;;;;;5249430;27;20273;-85
2024/04/16 09:00:00;;;;;;;6.50;1.03;;;;;;;;;;5249954;27;20282;-85
2024/04/16 09:03:04;;;;;;;4.07;1.07;;;;;;;;;;5249380;27;20232;-85
2024/04/16 09:06:09;;;;;;;7.10;4.00;;;;;;;;;;5268371;27;20728;-86
2024/04/16 09:09:13;;;;;;;6.03;1.00;;;;;;;;;;5233274;27;20275;-85
2024/04/16 09:12:18;;;;;;;2.97;0.90;;;;;;;;;;5269120;27;20267;-85
2024/04/16 09:15:23;;;;;;;5.47;1.13;;;;;;;;;;5249691;27;20216;-85
2024/04/16 09:18:28;;;;;;;4.20;1.50;;;;;;;;;;5230110;27;20283;-85
2024/04/16 09:21:33;;;;;;;3.23;1.10;;;;;;;;;;5268770;27;20239;-85
2024/04/16 09:24:37;;;;;;;2.13;1.00;;;;;;;;;;5249971;27;20227;-84
2024/04/16 09:27:46;;;;;;;5.40;1.20;;;;;;;;;;5248703;27;20227;-85
2024/04/16 09:30:57;;;;;;;1.93;1.20;;;;;;;;;;5250270;27;20279;-85
2024/04/16 09:34:11;;;;;;;4.13;1.53;;;;;;;;;;5249889;27;20232;-85
2024/04/16 09:37:19;;;;;;;1.93;1.00;;;;;;;;;;5267347;27;20228;-85
2024/04/16 09:40:28;;;;;;;2.17;0.80;;;;;;;;;;5250438;27;20272;-85
2024/04/16 09:43:33;;;;;;;4.57;0.90;;;;;;;;;;5229027;27;20232;-85
2024/04/16 09:46:41;;;;;;;2.03;0.87;;;;;;;;;;5248637;27;20274;-86
2024/04/16 09:49:54;;;;;;;4.20;0.93;;;;;;;;;;5246386;27;20637;-86
2024/04/16 09:53:02;;;;;;;2.20;1.00;;;;;;;;;;5229232;27;20283;-85
2024/04/16 09:56:14;;;;;;;3.60;0.90;;;;;;;;;;5248059;27;20724;-85
2024/04/16 10:15:04;;;;;;;3.63;1.00;;;;;;;;;;5248174;27;20216;-86
2024/04/16 10:18:41;;;;;;;3.40;1.00;;;;;;;;;;5247726;27;20318;-86
2024/04/16 10:21:52;;;;;;;4.07;1.10;;;;;;;;;;5228417;27;20224;-86
2024/04/16 10:25:30;;;;;;;2.43;1.23;;;;;;;;;;5229684;27;20232;-86
2024/04/16 10:45:02;;;;;;;3.37;1.30;;;;;;;;;;5248013;27;20290;-86
2024/04/16 10:49:41;;;;;;;5.20;1.33;;;;;;;;;;5247548;27;20279;-86
2024/04/16 11:15:31;;;;;;;2.70;0.90;;;;;;;;;;5244322;27;20298;-86
2024/04/16 11:20:15;;;;;;;3.00;1.10;;;;;;;;;;5246253;27;20298;-86
2024/04/16 11:44:21;;;;;;;2.43;0.90;;;;;;;;;;5245925;27;20572;-86
2024/04/16 11:49:05;;;;;;;2.27;0.90;;;;;;;;;;5251665;27;20290;-86
2024/04/16 12:23:09;;;;;;;16.97;6.83;;;;;;;;;;5263639;27;20371;-86
2024/04/16 12:27:28;;;;;;;5.07;2.30;;;;;;;;;;5278902;27;20281;-86
2024/04/16 12:42:20;;;;;;;6.90;2.70;;;;;;;;;;5179209;27;20292;-86
2024/04/16 12:52:06;;;;;;;2.67;1.60;;;;;;;;;;5215405;27;20295;-86
2024/04/16 12:57:00;;;;;;;1.17;1.00;;;;;;;;;;5214368;27;20292;-86
2024/04/16 13:01:04;;;;;;;2.57;1.40;;;;;;;;;;5131160;27;20687;-85
2024/04/16 13:05:29;;;;;;;2.17;0.90;;;;;;;;;;5140271;27;20298;-86
2024/04/16 13:09:18;;;;;;;2.53;0.80;;;;;;;;;;5130235;27;20868;-86
2024/04/16 13:13:16;;;;;;;3.70;0.80;;;;;;;;;;5196309;27;20240;-86
2024/04/16 13:17:21;;;;;;;1.93;0.87;;;;;;;;;;5197369;27;20287;-86
2024/04/16 13:21:51;;;;;;;1.33;0.57;;;;;;;;;;5214168;27;20669;-86
2024/04/16 13:31:50;;;;;;;3.60;0.90;;;;;;;;;;5266344;27;20230;-86
2024/04/16 13:35:53;;;;;;;6.17;1.00;;;;;;;;;;5250072;27;20776;-86
2024/04/16 13:51:20;;;;;;;1.20;0.60;;;;;;;;;;5247480;27;20279;-86
2024/04/16 14:15:34;;;;;;;29.10;12.17;;;;;;;;;;5278270;27;20290;-86
2024/04/16 14:34:44;;;;;;;2.43;0.70;;;;;;;;;;5173897;27;20291;-86
2024/04/16 14:44:29;;;;;;;2.17;0.93;;;;;;;;;;5312821;27;20279;-86
2024/04/16 14:48:43;;;;;;;24.43;9.83;;;;;;;;;;5293506;27;20283;-86
2024/04/16 15:03:05;;;;;;;3.17;0.80;;;;;;;;;;5211530;27;20295;-86
2024/04/16 15:11:46;;;;;;;2.03;0.40;;;;;;;;;;5312729;27;20572;-86
2024/04/16 15:16:03;;;;;;;0.90;0.50;;;;;;;;;;5273516;27;20277;-86
2024/04/16 15:34:00;;;;;;;6.83;3.27;;;;;;;;;;5246817;27;20298;-88
2024/04/16 15:37:08;;;;;;;20.33;9.47;;;;;;;;;;5250871;27;20227;-86
2024/04/16 15:40:20;;;;;;;14.67;6.97;;;;;;;;;;5229803;27;20224;-85
2024/04/16 15:44:19;;;;;;;10.07;4.60;;;;;;;;;;5252179;27;20231;-86
2024/04/16 16:06:32;;;;;;;1.10;0.50;;;;;;;;;;5247161;27;20278;-84
2024/04/16 16:10:34;;;;;;;2.03;1.23;;;;;;;;;;5247702;27;20263;-84
2024/04/16 16:13:42;;;;;;;0.73;0.70;;;;;;;;;;5210397;27;20780;-84
2024/04/16 16:17:38;;;;;;;4.53;4.13;;;;;;;;;;5249102;27;20275;-84
2024/04/16 16:21:30;;;;;;;3.40;1.73;;;;;;;;;;5246722;27;20279;-84
2024/04/16 16:24:43;;;;;;;10.37;5.37;;;;;;;;;;5225785;27;20235;-84
2024/04/16 16:28:32;;;;;;;5.37;3.50;;;;;;;;;;5262465;27;20279;-84
2024/04/16 16:33:13;;;;;;;2.77;1.53;;;;;;;;;;5242346;27;20269;-85
2024/04/16 16:36:44;;;;;;;1.40;1.00;;;;;;;;;;5254912;27;20786;-84
2024/04/16 16:39:53;;;;;;;2.03;0.70;;;;;;;;;;5252932;27;20658;-84
2024/04/16 16:42:59;;;;;;;12.40;7.83;;;;;;;;;;5240629;27;20210;-85
2024/04/16 16:46:03;;;;;;;11.17;8.00;;;;;;;;;;5260151;27;20583;-84
2024/04/16 16:49:08;;;;;;;10.60;6.20;;;;;;;;;;5253784;27;20278;-85
2024/04/16 16:52:13;;;;;;;1.57;0.80;;;;;;;;;;5252834;27;20707;-85
2024/04/16 16:55:17;;;;;;;2.00;0.90;;;;;;;;;;5253221;27;20206;-84
2024/04/16 16:58:21;;;;;;;1.73;0.80;;;;;;;;;;5253637;27;20281;-84
2024/04/16 17:01:26;;;;;;;1.00;0.60;;;;;;;;;;5237262;27;20210;-84
2024/04/16 17:04:31;;;;;;;1.90;1.10;;;;;;;;;;5258189;27;20202;-85
2024/04/16 17:07:35;;;;;;;2.10;1.13;;;;;;;;;;5258884;27;20220;-84
2024/04/16 17:10:40;;;;;;;1.50;0.60;;;;;;;;;;5262975;27;20218;-84
2024/04/16 17:13:45;;;;;;;1.37;0.67;;;;;;;;;;5260735;27;20584;-85
2024/04/16 17:16:50;;;;;;;2.10;0.70;;;;;;;;;;5263313;27;20206;-85
2024/04/16 17:19:56;;;;;;;1.03;0.47;;;;;;;;;;5242441;27;20281;-85
2024/04/16 17:23:02;;;;;;;3.57;0.50;;;;;;;;;;5259326;27;20286;-85
2024/04/16 17:26:13;;;;;;;1.20;0.50;;;;;;;;;;5260370;27;20206;-85
2024/04/16 17:29:19;;;;;;;1.47;0.57;;;;;;;;;;5260286;27;20273;-84
2024/04/16 17:56:22;;;;;;;1.17;0.60;;;;;;;;;;5257116;27;20209;-84
2024/04/16 17:59:27;;;;;;;7.70;0.90;;;;;;;;;;5237710;27;20604;-84
2024/04/16 18:02:51;;;;;;;2.17;0.90;;;;;;;;;;5241067;27;20727;-84
2024/04/16 18:05:55;;;;;;;0.80;0.50;;;;;;;;;;5255368;27;20231;-84
2024/04/16 18:09:05;;;;;;;1.53;0.60;;;;;;;;;;5236882;27;20298;-84
2024/04/16 18:12:10;;;;;;;1.87;0.70;;;;;;;;;;5254707;27;20220;-84
2024/04/16 18:15:17;;;;;;;1.00;0.50;;;;;;;;;;5237740;27;20337;-84
2024/04/16 18:18:24;;;;;;;1.80;0.60;;;;;;;;;;5238865;22;20357;-80
2024/04/16 18:21:28;;;;;;;3.73;0.70;;;;;;;;;;5281855;27;20727;-81
2024/04/16 18:24:32;;;;;;;2.43;0.43;;;;;;;;;;5281791;27;20270;-81
2024/04/16 18:27:37;;;;;;;0.73;0.43;;;;;;;;;;5281605;27;20274;-80
2024/04/16 18:30:41;;;;;;;1.57;0.60;;;;;;;;;;5261377;27;20289;-80
2024/04/16 18:33:46;;;;;;;1.10;0.60;;;;;;;;;;5281793;27;20270;-81
2024/04/16 18:36:50;;;;;;;1.27;0.80;;;;;;;;;;5281457;27;20328;-81
2024/04/16 18:40:00;;;;;;;0.90;0.60;;;;;;;;;;5282439;27;20285;-82
2024/04/16 18:43:10;;;;;;;1.60;0.80;;;;;;;;;;5282469;27;20227;-82
2024/04/16 18:46:15;;;;;;;0.50;0.40;;;;;;;;;;5261346;27;20231;-81
2024/04/16 18:49:19;;;;;;;2.00;0.50;;;;;;;;;;5260694;27;20234;-80
2024/04/16 18:52:27;;;;;;;1.37;0.60;;;;;;;;;;5239646;27;20278;-80
2024/04/16 18:55:32;;;;;;;1.77;0.60;;;;;;;;;;5279988;27;20277;-80
2024/04/16 18:58:38;;;;;;;1.17;0.50;;;;;;;;;;5260383;27;20281;-80
2024/04/16 19:01:46;;;;;;;0.40;0.40;;;;;;;;;;5260310;27;20226;-80
2024/04/16 19:04:50;;;;;;;2.13;0.47;;;;;;;;;;5260069;27;20263;-81
2024/04/16 19:07:54;;;;;;;0.50;0.40;;;;;;;;;;5222355;27;20701;-80
2024/04/16 19:10:59;;;;;;;1.53;0.60;;;;;;;;;;5241389;27;20798;-81
2024/04/16 19:14:04;;;;;;;2.00;0.77;;;;;;;;;;5260300;27;20222;-82
2024/04/16 19:17:12;;;;;;;1.17;0.50;;;;;;;;;;5260082;27;20235;-81
2024/04/16 19:20:16;;;;;;;1.13;0.70;;;;;;;;;;5260291;27;20663;-81
2024/04/16 19:23:23;;;;;;;1.47;0.60;;;;;;;;;;5279870;27;20223;-81
2024/04/16 19:26:28;;;;;;;0.93;0.60;;;;;;;;;;5260211;27;20235;-80
2024/04/16 19:29:33;;;;;;;0.63;0.50;;;;;;;;;;5240897;27;20227;-81
2024/04/16 19:32:38;;;;;;;0.70;0.60;;;;;;;;;;5279409;27;20770;-80
2024/04/16 19:35:43;;;;;;;2.23;0.80;;;;;;;;;;5259885;27;20222;-80
2024/04/16 19:38:50;;;;;;;1.87;0.57;;;;;;;;;;5240584;27;20285;-80
2024/04/16 19:41:54;;;;;;;0.80;0.57;;;;;;;;;;5278806;27;20226;-81
2024/04/16 19:44:58;;;;;;;1.43;0.53;;;;;;;;;;5279035;27;20285;-81
2024/04/16 19:48:08;;;;;;;0.90;0.50;;;;;;;;;;5280076;27;20281;-81
2024/04/16 19:51:18;;;;;;;1.13;0.70;;;;;;;;;;5279026;27;20219;-81
2024/04/16 19:54:25;;;;;;;1.37;0.50;;;;;;;;;;5278840;27;20554;-81
2024/04/16 19:57:30;;;;;;;0.93;0.50;;;;;;;;;;5278904;27;20282;-81
2024/04/16 20:00:35;;;;;;;3.90;0.60;;;;;;;;;;5278759;27;20215;-80
2024/04/16 20:03:42;;;;;;;0.53;0.40;;;;;;;;;;5259718;27;20269;-81
2024/04/16 20:06:46;;;;;;;1.27;0.50;;;;;;;;;;5260025;27;20719;-81
2024/04/16 20:09:54;;;;;;;0.63;0.40;;;;;;;;;;5278801;27;20266;-81
2024/04/16 20:12:59;;;;;;;2.67;1.20;;;;;;;;;;5259309;27;20227;-84
2024/04/16 20:16:14;;;;;;;0.73;0.50;;;;;;;;;;5279366;27;20745;-81
2024/04/16 20:19:26;;;;;;;1.10;0.70;;;;;;;;;;5279172;27;20619;-81
2024/04/16 20:22:35;;;;;;;0.97;0.40;;;;;;;;;;5260376;27;20735;-82
2024/04/16 20:25:45;;;;;;;2.20;0.77;;;;;;;;;;5280323;27;20273;-82
2024/04/16 20:28:53;;;;;;;0.80;0.60;;;;;;;;;;5261049;27;20282;-81
2024/04/16 20:32:02;;;;;;;0.80;0.50;;;;;;;;;;5241535;27;20227;-82
2024/04/16 20:35:07;;;;;;;1.63;0.50;;;;;;;;;;5244380;27;20222;-81
2024/04/16 20:38:12;;;;;;;2.10;0.70;;;;;;;;;;5262703;27;20616;-80
2024/04/16 20:41:46;;;;;;;0.90;0.70;;;;;;;;;;5269442;27;20227;-81
2024/04/16 20:44:51;;;;;;;2.70;0.60;;;;;;;;;;5263192;27;20572;-81
2024/04/16 20:48:00;;;;;;;0.70;0.70;;;;;;;;;;5282084;27;20290;-81
2024/04/16 20:51:05;;;;;;;1.40;0.70;;;;;;;;;;5282352;27;20258;-81
2024/04/16 20:54:13;;;;;;;1.17;0.60;;;;;;;;;;5281993;27;20266;-82
2024/04/16 20:57:17;;;;;;;1.47;0.70;;;;;;;;;;5282489;27;20281;-82
2024/04/16 21:00:23;;;;;;;2.00;0.70;;;;;;;;;;5282414;27;20215;-81
2024/04/16 21:03:27;;;;;;;0.73;0.50;;;;;;;;;;5243797;27;20226;-82
2024/04/16 21:06:33;;;;;;;0.57;0.50;;;;;;;;;;5245002;27;20763;-82
2024/04/16 21:09:38;;;;;;;3.13;0.60;;;;;;;;;;5282344;27;20266;-82
2024/04/16 21:12:44;;;;;;;0.70;0.57;;;;;;;;;;5262621;27;20226;-82
2024/04/16 21:15:55;;;;;;;1.37;0.73;;;;;;;;;;5225193;27;20555;-82
2024/04/16 21:19:00;;;;;;;1.27;0.60;;;;;;;;;;5243810;27;20282;-82
2024/04/16 21:22:05;;;;;;;4.00;0.80;;;;;;;;;;5282376;27;20219;-82
2024/04/16 21:25:10;;;;;;;0.90;0.70;;;;;;;;;;5244321;27;20258;-81
2024/04/16 21:28:14;;;;;;;2.93;0.93;;;;;;;;;;5283696;27;20289;-81
2024/04/16 21:31:21;;;;;;;3.27;1.10;;;;;;;;;;5243339;27;20219;-80
2024/04/16 21:34:27;;;;;;;1.70;0.80;;;;;;;;;;5242708;27;20274;-80
2024/04/16 21:37:31;;;;;;;0.97;0.60;;;;;;;;;;5261470;27;20278;-81
2024/04/16 21:40:35;;;;;;;2.80;1.00;;;;;;;;;;5242164;27;20273;-83
2024/04/16 21:43:40;;;;;;;1.33;0.50;;;;;;;;;;5261653;27;20218;-82
2024/04/16 21:46:44;;;;;;;2.00;0.80;;;;;;;;;;5241004;27;20231;-83
2024/04/16 21:49:49;;;;;;;1.20;0.70;;;;;;;;;;5261246;27;20270;-82
2024/04/16 21:52:53;;;;;;;1.63;0.60;;;;;;;;;;5242450;27;20223;-82
2024/04/16 21:55:58;;;;;;;1.27;0.60;;;;;;;;;;5280758;27;20218;-82
2024/04/16 21:59:03;;;;;;;0.53;0.50;;;;;;;;;;5280824;27;20775;-82
2024/04/16 22:02:07;;;;;;;1.37;0.93;;;;;;;;;;5280572;27;20568;-82
2024/04/16 22:05:11;;;;;;;3.10;0.90;;;;;;;;;;5280765;27;20757;-82
2024/04/16 22:08:15;;;;;;;1.17;0.70;;;;;;;;;;5261053;27;20817;-81
2024/04/16 22:11:20;;;;;;;0.93;0.60;;;;;;;;;;5280358;27;20230;-81
2024/04/16 22:14:25;;;;;;;1.33;0.50;;;;;;;;;;5261161;27;20227;-82
2024/04/16 22:17:29;;;;;;;0.97;0.60;;;;;;;;;;5280237;27;20286;-82
2024/04/16 22:20:34;;;;;;;1.63;0.80;;;;;;;;;;5261714;27;20219;-82
2024/04/16 22:23:37;;;;;;;1.30;0.50;;;;;;;;;;5280462;27;20277;-83
2024/04/16 22:26:42;;;;;;;1.33;0.60;;;;;;;;;;5260685;27;20219;-81
2024/04/16 22:29:48;;;;;;;5.23;0.90;;;;;;;;;;5280774;27;20732;-82
2024/04/16 22:32:52;;;;;;;0.60;0.60;;;;;;;;;;5281589;27;20230;-83
2024/04/16 22:35:58;;;;;;;2.00;0.70;;;;;;;;;;5280663;27;20230;-82
2024/04/16 22:39:06;;;;;;;0.80;0.60;;;;;;;;;;5260805;27;20286;-83
2024/04/16 22:42:10;;;;;;;0.57;0.57;;;;;;;;;;5261292;27;20719;-81
2024/04/16 22:45:14;;;;;;;0.60;0.60;;;;;;;;;;5280586;27;20214;-81
2024/04/16 22:48:19;;;;;;;0.50;0.50;;;;;;;;;;5241635;27;20281;-81
2024/04/16 22:51:24;;;;;;;0.77;0.63;;;;;;;;;;5281650;27;20227;-82
2024/04/16 22:54:34;;;;;;;2.37;0.80;;;;;;;;;;5280413;27;20270;-81
2024/04/16 22:57:39;;;;;;;0.73;0.70;;;;;;;;;;5241657;27;20270;-81
2024/04/16 23:00:45;;;;;;;0.80;0.80;;;;;;;;;;5280164;27;20218;-82
2024/04/16 23:03:50;;;;;;;2.10;0.90;;;;;;;;;;5281258;27;20265;-81
2024/04/16 23:06:54;;;;;;;1.00;0.77;;;;;;;;;;5260777;27;20230;-82
2024/04/16 23:09:58;;;;;;;1.60;0.83;;;;;;;;;;5260905;27;20262;-82
2024/04/16 23:13:03;;;;;;;0.50;0.50;;;;;;;;;;5261067;27;20230;-81
2024/04/16 23:16:07;;;;;;;2.20;0.53;;;;;;;;;;5261802;27;20214;-82
2024/04/16 23:19:12;;;;;;;0.60;0.60;;;;;;;;;;5242429;27;20277;-81
2024/04/16 23:22:16;;;;;;;0.40;0.40;;;;;;;;;;5261355;27;20218;-82
2024/04/16 23:25:20;;;;;;;0.60;0.60;;;;;;;;;;5261147;27;20278;-81
2024/04/16 23:28:25;;;;;;;0.50;0.50;;;;;;;;;;5242384;27;20285;-81
2024/04/16 23:31:30;;;;;;;0.50;0.50;;;;;;;;;;5281333;27;20277;-82
2024/04/16 23:34:35;;;;;;;0.50;0.50;;;;;;;;;;5280395;27;20231;-82